Terminal Aerodrome Forecast
Issued by NWS

Home | Current Version | Previous Version | Text Only | Print | Product List | Glossary On
Versions: 1 2 3 4 5 6 7 8 9 10 11 12 13 14 15 16 17 18 19 20 21 22 23 24 25 26 27 28 29 30
152
FTUS42 KCAE 240855 AAA
TAFOGB
TAF AMD
KOGB 240855Z 2409/2506 VRB05KT 5SM SHRA VCTS OVC008CB
      TEMPO 2409/2412 2SM SHRA OVC008
     FM241200 04007KT P6SM VCSH OVC008
     FM241400 VRB10KT 4SM SHRA VCTS BKN015CB
      TEMPO 2416/2420 +TSRA
     FM250200 33007KT 6SM -SHRA OVC008=

USA.gov is the U.S. government's official web portal to all federal, state and local government web resources and services.